Time;durP1;ratioP1;P1;durP2;ratioP2;P2;SDS_P1;SDS_P2;PMS_P1;PMS_P2;Temp;Humidity;BMP_temperature;BMP_pressure;BME280_temperature;BME280_humidity;BME280_pressure;Samples;Min_cycle;Max_cycle;Signal;HPM_P1;HPM_P2
2021/07/09 00:01:46;;;;;;;;;;;16.70;99.90;;;;;;5015238;28;20053;-75
2021/07/09 00:04:15;;;;;;;4.40;2.80;;;16.70;99.90;;;;;;5013807;28;19928;-78
2021/07/09 00:06:42;;;;;;;4.63;2.92;;;16.70;99.90;;;;;;5015311;28;20123;-75
2021/07/09 00:09:09;;;;;;;5.78;2.83;;;16.70;99.90;;;;;;5015159;28;20133;-77
2021/07/09 00:11:41;;;;;;;6.18;3.10;;;16.70;99.90;;;;;;5014399;28;20050;-77
2021/07/09 00:14:10;;;;;;;5.18;2.80;;;16.70;99.90;;;;;;5015009;28;20483;-78
2021/07/09 00:16:37;;;;;;;6.28;2.58;;;16.60;99.90;;;;;;5013971;28;20060;-77
2021/07/09 00:19:05;;;;;;;4.18;2.65;;;16.60;99.90;;;;;;5015153;28;20136;-76
2021/07/09 00:21:33;;;;;;;5.80;2.60;;;16.60;99.90;;;;;;5008250;28;20100;-74
2021/07/09 00:24:01;;;;;;;4.63;2.83;;;16.60;99.90;;;;;;5011091;28;20047;-76
2021/07/09 00:26:29;;;;;;;4.65;2.83;;;16.60;99.90;;;;;;5014921;28;20506;-77
2021/07/09 00:28:58;;;;;;;4.68;2.53;;;16.60;99.90;;;;;;5015063;28;20046;-76
2021/07/09 00:31:26;;;;;;;5.78;2.88;;;16.60;99.90;;;;;;5015204;28;20054;-75
2021/07/09 00:33:53;;;;;;;5.18;2.85;;;16.60;99.90;;;;;;5015084;28;20140;-74
2021/07/09 00:36:20;;;;;;;7.07;3.17;;;16.60;99.90;;;;;;5013828;28;20052;-77
2021/07/09 00:38:47;;;;;;;4.80;3.03;;;16.50;99.90;;;;;;5014912;28;20049;-77
2021/07/09 00:41:15;;;;;;;6.05;2.58;;;16.60;99.90;;;;;;5014601;28;20049;-78
2021/07/09 00:43:42;;;;;;;5.35;2.97;;;16.60;99.90;;;;;;5014850;28;20124;-75
2021/07/09 00:46:10;;;;;;;4.75;2.72;;;16.50;99.90;;;;;;5014545;28;20205;-74
2021/07/09 00:48:38;;;;;;;7.35;3.08;;;16.50;99.90;;;;;;5014547;28;20052;-74
2021/07/09 00:51:08;;;;;;;7.28;2.85;;;16.50;99.90;;;;;;5014225;28;20148;-75
2021/07/09 00:53:35;;;;;;;5.82;2.85;;;16.40;99.90;;;;;;5014681;28;20060;-78
2021/07/09 00:56:04;;;;;;;7.05;3.13;;;16.40;99.90;;;;;;5014528;28;20092;-76
2021/07/09 00:58:31;;;;;;;5.20;2.83;;;16.40;99.90;;;;;;5007048;28;20406;-76
2021/07/09 01:00:58;;;;;;;8.55;3.28;;;16.40;99.90;;;;;;5014240;28;20394;-76
2021/07/09 01:03:27;;;;;;;5.13;2.53;;;16.40;99.90;;;;;;5014150;28;20146;-77
2021/07/09 01:05:54;;;;;;;4.22;2.35;;;16.40;99.90;;;;;;5014142;28;20046;-76
2021/07/09 01:08:21;;;;;;;4.55;2.40;;;16.30;99.90;;;;;;5014372;28;20074;-79
2021/07/09 01:10:49;;;;;;;4.28;2.40;;;16.30;99.90;;;;;;5014004;28;20056;-77
2021/07/09 01:13:17;;;;;;;3.90;2.40;;;16.30;99.90;;;;;;5013351;28;20487;-77
2021/07/09 01:15:44;;;;;;;4.40;2.45;;;16.40;99.90;;;;;;5014337;28;20129;-75
2021/07/09 01:18:12;;;;;;;5.35;2.45;;;16.40;99.90;;;;;;5015249;28;20105;-76
2021/07/09 01:20:40;;;;;;;5.85;2.47;;;16.40;99.90;;;;;;5014502;28;20128;-76
2021/07/09 01:23:08;;;;;;;4.20;2.55;;;16.40;99.90;;;;;;5013919;28;20483;-78
2021/07/09 01:25:36;;;;;;;4.38;2.45;;;16.30;99.90;;;;;;5014098;28;20046;-75
2021/07/09 01:28:09;;;;;;;4.85;2.60;;;16.30;99.90;;;;;;5014002;28;20050;-77
2021/07/09 01:30:37;;;;;;;5.80;2.88;;;16.30;99.90;;;;;;5013914;28;20117;-75
2021/07/09 01:33:05;;;;;;;6.50;2.70;;;16.40;99.90;;;;;;5013304;28;20054;-77
2021/07/09 01:35:33;;;;;;;5.97;2.95;;;16.30;99.90;;;;;;5006552;28;20137;-77
2021/07/09 01:38:04;;;;;;;4.60;2.60;;;16.30;99.90;;;;;;5013755;28;20053;-76
2021/07/09 01:40:33;;;;;;;5.75;3.10;;;16.30;99.90;;;;;;5006191;28;20045;-77
2021/07/09 01:43:03;;;;;;;4.00;2.50;;;16.30;99.90;;;;;;5013666;28;20056;-76
2021/07/09 01:45:30;;;;;;;5.85;2.63;;;16.30;99.90;;;;;;5006168;28;20049;-74
2021/07/09 01:47:58;;;;;;;4.50;2.53;;;16.20;99.90;;;;;;5013661;28;20052;-75
2021/07/09 01:50:27;;;;;;;5.07;2.53;;;16.30;99.90;;;;;;5013244;28;20623;-76
2021/07/09 01:52:54;;;;;;;6.25;3.08;;;16.30;99.90;;;;;;5013349;28;20594;-77
2021/07/09 01:55:22;;;;;;;4.45;2.80;;;16.30;99.90;;;;;;5013190;28;20092;-77
2021/07/09 01:57:49;;;;;;;4.55;2.67;;;16.30;99.90;;;;;;5013357;28;20471;-76
2021/07/09 02:00:21;;;;;;;4.43;2.70;;;16.30;99.90;;;;;;5013040;28;20050;-76
2021/07/09 02:02:49;;;;;;;5.25;3.00;;;16.30;99.90;;;;;;5013546;28;20129;-77
2021/07/09 02:05:18;;;;;;;5.15;2.60;;;16.30;99.90;;;;;;5013336;28;20054;-77
2021/07/09 02:07:50;;;;;;;5.38;2.88;;;16.30;99.90;;;;;;5013705;28;20124;-74
2021/07/09 02:10:20;;;;;;;3.97;2.60;;;16.30;99.90;;;;;;5012794;28;20049;-77
2021/07/09 02:12:50;;;;;;;7.53;2.58;;;16.30;99.90;;;;;;5013633;28;20052;-76
2021/07/09 02:15:19;;;;;;;4.28;2.53;;;16.30;99.90;;;;;;5012890;28;20049;-74
2021/07/09 02:17:46;;;;;;;5.78;2.75;;;16.30;99.90;;;;;;5013210;28;20064;-79
2021/07/09 02:20:18;;;;;;;6.18;2.63;;;16.20;99.90;;;;;;5012793;28;20053;-76
2021/07/09 02:22:46;;;;;;;6.13;2.60;;;16.20;99.90;;;;;;5012732;28;20060;-77
2021/07/09 02:25:14;;;;;;;5.22;2.70;;;16.20;99.90;;;;;;5012286;28;20300;-79
2021/07/09 02:27:44;;;;;;;4.57;2.60;;;16.20;99.90;;;;;;5012632;28;20042;-76
2021/07/09 02:30:15;;;;;;;4.40;2.53;;;16.20;99.90;;;;;;5012472;28;20136;-77
2021/07/09 02:32:45;;;;;;;4.75;2.28;;;16.20;99.90;;;;;;5012936;28;20133;-78
2021/07/09 02:35:15;;;;;;;5.85;2.78;;;16.20;99.90;;;;;;5012517;28;20141;-77
2021/07/09 02:37:43;;;;;;;5.03;2.65;;;16.20;99.90;;;;;;5012441;28;20046;-76
2021/07/09 02:40:13;;;;;;;4.80;2.67;;;16.20;99.90;;;;;;5012507;28;20053;-76
2021/07/09 02:42:41;;;;;;;6.95;2.47;;;16.20;99.90;;;;;;5013513;28;20053;-77
2021/07/09 02:45:10;;;;;;;5.68;2.60;;;16.20;99.90;;;;;;5012770;28;20050;-76
2021/07/09 02:47:37;;;;;;;5.05;2.58;;;16.20;99.90;;;;;;5013046;28;20046;-78
2021/07/09 02:50:10;;;;;;;6.97;2.78;;;16.10;99.90;;;;;;5012943;28;20144;-77
2021/07/09 02:52:38;;;;;;;8.77;2.75;;;16.10;99.90;;;;;;5012749;28;20132;-76
2021/07/09 02:55:07;;;;;;;7.30;2.45;;;16.10;99.90;;;;;;5012852;28;20484;-75
2021/07/09 02:57:36;;;;;;;5.13;2.80;;;16.10;99.90;;;;;;5012902;28;20046;-76
2021/07/09 03:00:04;;;;;;;7.65;3.13;;;16.10;99.90;;;;;;5012545;28;20056;-77
2021/07/09 03:02:31;;;;;;;4.95;2.58;;;16.10;99.90;;;;;;5003909;28;20074;-76
2021/07/09 03:04:58;;;;;;;6.15;2.95;;;16.10;99.90;;;;;;5010161;28;20125;-76
2021/07/09 03:07:27;;;;;;;5.22;3.00;;;16.10;99.90;;;;;;5009651;28;20053;-75
2021/07/09 03:09:54;;;;;;;5.18;2.70;;;16.00;99.90;;;;;;5008305;28;20061;-74
2021/07/09 03:12:21;;;;;;;5.15;2.65;;;16.00;99.90;;;;;;5008950;28;20395;-78
2021/07/09 03:14:48;;;;;;;5.95;2.88;;;16.00;99.90;;;;;;5009074;28;20065;-77
2021/07/09 03:17:15;;;;;;;6.82;2.60;;;16.00;99.90;;;;;;5008191;28;20129;-78
2021/07/09 03:19:42;;;;;;;4.32;2.65;;;16.00;99.90;;;;;;5008709;28;20056;-75
2021/07/09 03:22:09;;;;;;;5.63;2.80;;;16.00;99.90;;;;;;5009030;28;20078;-76
2021/07/09 03:24:38;;;;;;;5.28;3.05;;;16.00;99.90;;;;;;5009160;28;20056;-74
2021/07/09 03:27:05;;;;;;;4.80;2.90;;;15.90;99.90;;;;;;5008676;28;20048;-74
2021/07/09 03:29:32;;;;;;;6.65;3.00;;;16.00;99.90;;;;;;5009866;28;20376;-77
2021/07/09 03:31:59;;;;;;;5.68;2.70;;;16.00;99.90;;;;;;5008941;28;20048;-75
2021/07/09 03:34:26;;;;;;;5.32;2.90;;;16.00;99.90;;;;;;5008822;28;20136;-78
2021/07/09 03:36:53;;;;;;;5.57;2.85;;;16.00;99.90;;;;;;5012556;28;20096;-76
2021/07/09 03:39:20;;;;;;;5.18;2.83;;;16.00;99.90;;;;;;5012122;28;20563;-77
2021/07/09 03:41:49;;;;;;;4.00;2.50;;;16.00;99.90;;;;;;5012473;28;20042;-81
2021/07/09 03:44:16;;;;;;;5.13;2.80;;;16.00;99.90;;;;;;5012262;28;20050;-79
2021/07/09 03:46:43;;;;;;;6.03;3.00;;;16.00;99.90;;;;;;5012604;28;20133;-79
2021/07/09 03:49:10;;;;;;;4.50;2.70;;;16.00;99.90;;;;;;5012440;28;20053;-80
2021/07/09 03:51:39;;;;;;;4.93;2.78;;;16.00;99.90;;;;;;5012246;28;20046;-80
2021/07/09 03:54:06;;;;;;;4.97;3.30;;;16.00;99.90;;;;;;5011784;28;20399;-78
2021/07/09 03:56:33;;;;;;;4.60;2.80;;;15.90;99.90;;;;;;5012278;28;20042;-79
2021/07/09 03:59:02;;;;;;;5.63;3.05;;;16.00;99.90;;;;;;5014092;28;20060;-78
2021/07/09 04:01:29;;;;;;;4.47;2.65;;;16.00;99.90;;;;;;5016393;28;20475;-80
2021/07/09 04:03:56;;;;;;;5.38;3.08;;;16.00;99.90;;;;;;5017624;28;20068;-76
2021/07/09 04:06:23;;;;;;;4.78;2.75;;;16.00;99.90;;;;;;5017065;28;20053;-80
2021/07/09 04:08:51;;;;;;;4.95;2.97;;;16.00;99.90;;;;;;5015796;28;20057;-75
2021/07/09 04:11:18;;;;;;;5.30;2.95;;;16.00;99.90;;;;;;5016020;28;20050;-77
2021/07/09 04:13:45;;;;;;;4.93;3.30;;;15.90;99.90;;;;;;5015396;28;20049;-76
2021/07/09 04:16:13;;;;;;;7.05;3.42;;;15.90;99.90;;;;;;5014970;28;20057;-77
2021/07/09 04:18:40;;;;;;;6.22;3.42;;;15.90;99.90;;;;;;5014408;28;20136;-76
2021/07/09 04:21:07;;;;;;;6.13;3.25;;;15.90;99.90;;;;;;5013822;28;20406;-79
2021/07/09 04:23:34;;;;;;;4.68;3.20;;;15.90;99.90;;;;;;5015557;28;20050;-77
2021/07/09 04:26:01;;;;;;;5.57;3.20;;;15.80;99.90;;;;;;5015461;28;20156;-78
2021/07/09 04:28:28;;;;;;;5.03;3.15;;;15.90;99.90;;;;;;5015640;28;20124;-77
2021/07/09 04:30:55;;;;;;;5.93;3.40;;;15.90;99.90;;;;;;5015923;28;20137;-78
2021/07/09 04:33:24;;;;;;;4.90;3.00;;;15.90;99.90;;;;;;5015437;28;20046;-78
2021/07/09 04:35:52;;;;;;;5.05;3.38;;;15.80;99.90;;;;;;5015767;28;20050;-75
2021/07/09 04:38:19;;;;;;;5.65;3.28;;;15.90;99.90;;;;;;5015374;28;20053;-77
2021/07/09 04:40:46;;;;;;;5.38;3.28;;;15.90;99.90;;;;;;5015423;28;20064;-77
2021/07/09 04:43:14;;;;;;;5.13;3.30;;;15.90;99.90;;;;;;5015187;28;20052;-79
2021/07/09 04:45:41;;;;;;;6.40;3.30;;;15.90;99.90;;;;;;5015065;28;20129;-77
2021/07/09 04:48:09;;;;;;;5.80;3.10;;;15.80;99.90;;;;;;5014896;28;20132;-78
2021/07/09 04:50:38;;;;;;;4.07;2.92;;;15.80;99.90;;;;;;5015142;28;20057;-78
2021/07/09 04:53:05;;;;;;;4.70;3.20;;;15.80;99.90;;;;;;5016216;28;20057;-77
2021/07/09 04:55:32;;;;;;;4.18;2.85;;;15.80;99.90;;;;;;5016270;28;20082;-75
2021/07/09 04:57:59;;;;;;;4.75;3.08;;;15.80;99.90;;;;;;5015159;28;20121;-78
2021/07/09 05:00:26;;;;;;;6.22;3.00;;;15.80;99.90;;;;;;5015267;28;20136;-76
2021/07/09 05:02:58;;;;;;;5.30;3.40;;;15.80;99.90;;;;;;5014850;28;20042;-78
2021/07/09 05:05:26;;;;;;;5.05;3.28;;;15.80;99.90;;;;;;5014772;28;20050;-76
2021/07/09 05:07:54;;;;;;;5.80;3.30;;;15.80;99.90;;;;;;5014894;28;20460;-75
2021/07/09 05:10:21;;;;;;;6.38;3.25;;;15.70;99.90;;;;;;5015015;28;20509;-78
2021/07/09 05:12:48;;;;;;;4.88;3.42;;;15.80;99.90;;;;;;5014862;28;20137;-79
2021/07/09 05:15:15;;;;;;;4.57;3.50;;;15.70;99.90;;;;;;5014583;28;20046;-77
2021/07/09 05:17:43;;;;;;;5.68;3.30;;;15.70;99.90;;;;;;5014602;28;20132;-78
2021/07/09 05:20:12;;;;;;;6.32;3.40;;;15.70;99.90;;;;;;5014540;28;20511;-77
2021/07/09 05:22:39;;;;;;;6.38;3.20;;;15.70;99.90;;;;;;5014915;28;20056;-77
2021/07/09 05:25:09;;;;;;;5.65;3.65;;;15.70;99.90;;;;;;5014608;28;20048;-77
2021/07/09 05:27:36;;;;;;;5.68;3.45;;;15.70;99.90;;;;;;5014462;28;20056;-75
2021/07/09 05:30:05;;;;;;;6.70;3.28;;;15.60;99.90;;;;;;5014432;28;20120;-78
2021/07/09 05:32:34;;;;;;;5.10;3.15;;;15.60;99.90;;;;;;5014127;28;20042;-78
2021/07/09 05:35:01;;;;;;;6.50;3.45;;;15.70;99.90;;;;;;5014282;28;20053;-77
2021/07/09 05:37:29;;;;;;;5.93;3.55;;;15.60;99.90;;;;;;5014328;28;20052;-77
2021/07/09 05:39:56;;;;;;;5.75;2.97;;;15.60;99.90;;;;;;5014194;28;20104;-76
2021/07/09 05:42:24;;;;;;;5.25;3.10;;;15.60;99.90;;;;;;5014121;28;20042;-77
2021/07/09 05:44:52;;;;;;;6.13;3.58;;;15.70;99.90;;;;;;5013970;28;20060;-79
2021/07/09 05:47:19;;;;;;;5.45;3.78;;;15.60;99.90;;;;;;5014437;28;20050;-78
2021/07/09 05:49:46;;;;;;;6.07;3.22;;;15.60;99.90;;;;;;5014117;28;20046;-77
2021/07/09 05:52:13;;;;;;;6.90;3.20;;;15.70;99.90;;;;;;5014056;28;20409;-77
2021/07/09 05:54:40;;;;;;;5.88;3.25;;;15.70;99.90;;;;;;5013811;28;20415;-75
2021/07/09 05:57:07;;;;;;;4.82;3.38;;;15.70;99.90;;;;;;5013784;28;20042;-78
2021/07/09 05:59:37;;;;;;;6.55;3.22;;;15.60;99.90;;;;;;5013537;28;20046;-77
2021/07/09 06:02:05;;;;;;;5.60;3.20;;;15.60;99.90;;;;;;5015005;28;20085;-79
2021/07/09 06:04:32;;;;;;;4.40;2.83;;;15.70;99.90;;;;;;5013613;28;20484;-77
2021/07/09 06:06:59;;;;;;;6.95;3.42;;;15.70;99.90;;;;;;5013628;28;20126;-79
2021/07/09 06:09:26;;;;;;;6.88;3.58;;;15.70;99.90;;;;;;5013379;28;20494;-78
2021/07/09 06:11:53;;;;;;;5.22;3.10;;;15.70;99.90;;;;;;5013785;28;20048;-79
2021/07/09 06:14:20;;;;;;;6.43;3.40;;;15.70;99.90;;;;;;5013623;28;20054;-75
2021/07/09 06:16:48;;;;;;;6.22;3.30;;;15.70;99.90;;;;;;5013862;28;20484;-77
2021/07/09 06:19:16;;;;;;;5.18;2.97;;;15.70;99.90;;;;;;5012712;28;20315;-77
2021/07/09 06:21:43;;;;;;;4.82;3.20;;;15.70;99.90;;;;;;5013387;28;20510;-76
2021/07/09 06:24:10;;;;;;;5.30;3.00;;;15.70;99.90;;;;;;5013675;28;20045;-77
2021/07/09 06:26:38;;;;;;;5.50;3.20;;;15.70;99.90;;;;;;5013438;28;20120;-77
2021/07/09 06:29:05;;;;;;;4.05;2.80;;;15.70;99.90;;;;;;5013653;28;20060;-78
2021/07/09 06:31:32;;;;;;;7.20;3.35;;;15.70;99.90;;;;;;5013466;28;20133;-78
2021/07/09 06:34:00;;;;;;;4.70;3.22;;;15.80;99.90;;;;;;5013646;28;20128;-78
2021/07/09 06:36:27;;;;;;;5.35;3.08;;;15.70;99.90;;;;;;5013078;28;20053;-77
2021/07/09 06:38:54;;;;;;;4.93;2.92;;;15.80;99.90;;;;;;5013915;28;20146;-77
2021/07/09 06:41:21;;;;;;;5.68;3.40;;;15.80;99.90;;;;;;5014206;28;20056;-76
2021/07/09 06:43:48;;;;;;;5.43;2.88;;;15.80;99.90;;;;;;5013521;28;20053;-78
2021/07/09 06:46:15;;;;;;;4.65;2.90;;;15.80;99.90;;;;;;5013314;28;20141;-77
2021/07/09 06:48:42;;;;;;;4.53;3.30;;;15.90;99.90;;;;;;5013184;28;20050;-79
2021/07/09 06:51:11;;;;;;;5.47;3.05;;;15.90;99.90;;;;;;5013130;28;20072;-79
2021/07/09 06:53:39;;;;;;;5.20;3.10;;;15.90;99.90;;;;;;5012907;28;20054;-79
2021/07/09 06:56:06;;;;;;;7.18;2.97;;;15.90;99.90;;;;;;5013254;28;20050;-79
2021/07/09 06:58:34;;;;;;;5.40;3.20;;;15.90;99.90;;;;;;5013158;28;20072;-78
2021/07/09 07:01:01;;;;;;;4.40;2.70;;;15.90;99.90;;;;;;5013286;28;20046;-79
2021/07/09 07:03:28;;;;;;;4.30;2.90;;;16.00;99.90;;;;;;5012980;28;20045;-79
2021/07/09 07:05:55;;;;;;;4.88;2.85;;;16.00;99.90;;;;;;5012991;28;20050;-79
2021/07/09 07:08:25;;;;;;;4.95;2.90;;;16.10;99.90;;;;;;5012859;28;20487;-80
2021/07/09 07:10:53;;;;;;;5.68;3.00;;;16.10;99.90;;;;;;5015467;28;20062;-80
2021/07/09 07:13:21;;;;;;;4.35;2.78;;;16.10;99.90;;;;;;5017362;28;20045;-77
2021/07/09 07:15:48;;;;;;;5.65;2.95;;;16.20;99.90;;;;;;5017222;28;20053;-77
2021/07/09 07:18:15;;;;;;;5.28;3.10;;;16.30;99.90;;;;;;5017134;28;20053;-78
2021/07/09 07:20:46;;;;;;;7.68;3.25;;;16.30;99.90;;;;;;5017242;28;20137;-78
2021/07/09 07:23:15;;;;;;;5.55;3.20;;;16.40;99.90;;;;;;5016623;28;20046;-79
2021/07/09 07:25:44;;;;;;;7.18;3.13;;;16.40;99.90;;;;;;5016970;28;20046;-79
2021/07/09 07:28:13;;;;;;;5.97;3.10;;;16.40;99.90;;;;;;5016465;28;20053;-78
2021/07/09 07:30:41;;;;;;;6.78;3.05;;;16.50;99.90;;;;;;5016645;28;20045;-77
2021/07/09 07:33:09;;;;;;;5.53;2.90;;;16.50;99.90;;;;;;5016348;28;20045;-78
2021/07/09 07:35:36;;;;;;;5.35;3.15;;;16.60;99.90;;;;;;5016220;28;20061;-77
2021/07/09 07:38:04;;;;;;;6.38;3.10;;;16.60;99.90;;;;;;5016315;28;20049;-80
2021/07/09 07:40:31;;;;;;;4.78;2.90;;;16.70;99.90;;;;;;5016339;28;20086;-79
2021/07/09 07:42:59;;;;;;;6.65;3.50;;;16.70;99.90;;;;;;5016616;28;20089;-79
2021/07/09 07:45:27;;;;;;;5.60;3.03;;;16.70;99.90;;;;;;5016292;28;20057;-77
2021/07/09 07:47:54;;;;;;;4.80;3.05;;;16.80;99.90;;;;;;5016523;28;20068;-78
2021/07/09 07:50:22;;;;;;;5.35;3.00;;;16.80;99.90;;;;;;5017215;28;20049;-78
2021/07/09 07:52:49;;;;;;;7.28;2.90;;;16.90;99.90;;;;;;5016316;28;20406;-78
2021/07/09 07:55:16;;;;;;;6.13;3.40;;;16.90;99.90;;;;;;5015857;28;20498;-77
2021/07/09 07:57:43;;;;;;;5.40;3.10;;;17.00;99.90;;;;;;5016074;28;20046;-77
2021/07/09 08:00:14;;;;;;;4.90;3.00;;;16.90;99.90;;;;;;5015960;28;20052;-79
2021/07/09 08:02:42;;;;;;;5.72;2.72;;;17.00;99.90;;;;;;5015796;28;20045;-78
2021/07/09 08:05:11;;;;;;;5.13;3.40;;;17.00;99.90;;;;;;5016112;28;20132;-79
2021/07/09 08:07:38;;;;;;;6.10;3.10;;;17.00;99.90;;;;;;5015955;28;20134;-77
2021/07/09 08:10:07;;;;;;;4.75;2.65;;;17.10;99.90;;;;;;5015576;28;20516;-77
2021/07/09 08:12:35;;;;;;;5.07;2.58;;;17.10;99.90;;;;;;5015842;28;20049;-76
2021/07/09 08:15:04;;;;;;;5.57;2.90;;;17.10;99.90;;;;;;5015863;28;20167;-76
2021/07/09 08:17:32;;;;;;;4.32;2.80;;;17.10;99.90;;;;;;5016306;28;20148;-77
2021/07/09 08:19:59;;;;;;;4.22;2.78;;;17.20;99.90;;;;;;5015632;28;20050;-79
2021/07/09 08:22:26;;;;;;;5.97;2.95;;;17.20;99.90;;;;;;5014391;28;20216;-79
2021/07/09 08:24:53;;;;;;;4.38;2.85;;;17.30;99.90;;;;;;5015520;28;20052;-75
2021/07/09 08:27:20;;;;;;;4.22;2.67;;;17.30;99.90;;;;;;5015445;28;20133;-76
2021/07/09 08:29:47;;;;;;;7.07;2.90;;;17.30;99.90;;;;;;5015299;28;20136;-77
2021/07/09 08:32:14;;;;;;;4.95;3.20;;;17.40;99.90;;;;;;5015404;28;20048;-77
2021/07/09 08:34:43;;;;;;;5.00;2.95;;;17.40;99.90;;;;;;5015446;28;20068;-75
2021/07/09 08:37:10;;;;;;;6.47;3.20;;;17.50;99.90;;;;;;5015284;28;20053;-79
2021/07/09 08:39:37;;;;;;;5.70;3.28;;;17.50;99.90;;;;;;5015256;28;20056;-77
2021/07/09 08:42:04;;;;;;;4.60;3.05;;;17.60;99.90;;;;;;5015100;28;20052;-80
2021/07/09 08:44:31;;;;;;;5.13;3.08;;;17.60;99.90;;;;;;5015409;28;20046;-78
2021/07/09 08:46:58;;;;;;;8.23;3.63;;;17.60;99.90;;;;;;5016190;28;20410;-78
2021/07/09 08:49:25;;;;;;;6.65;3.45;;;17.70;99.90;;;;;;5015410;28;20056;-77
2021/07/09 08:51:54;;;;;;;6.07;3.15;;;17.70;99.90;;;;;;5014976;28;20129;-79
2021/07/09 08:54:21;;;;;;;4.80;3.40;;;17.70;99.90;;;;;;5014804;28;20050;-79
2021/07/09 08:56:51;;;;;;;6.28;3.25;;;17.70;99.90;;;;;;5014727;28;20141;-79
2021/07/09 08:59:19;;;;;;;6.93;3.55;;;17.70;99.90;;;;;;5014984;28;20054;-79
2021/07/09 09:01:56;;;;;;;4.93;3.30;;;17.80;99.90;;;;;;5014865;28;20132;-79
2021/07/09 09:04:28;;;;;;;6.45;3.03;;;17.80;99.90;;;;;;5014854;28;20046;-79
2021/07/09 09:07:05;;;;;;;4.30;3.08;;;17.80;99.90;;;;;;5014678;28;20088;-78
2021/07/09 09:09:35;;;;;;;5.07;3.30;;;17.90;99.90;;;;;;5014653;28;20157;-78
2021/07/09 09:12:06;;;;;;;4.93;3.35;;;17.90;99.90;;;;;;5014658;28;20050;-79
2021/07/09 09:14:36;;;;;;;4.47;2.70;;;18.10;99.90;;;;;;5014684;28;20050;-78
2021/07/09 09:17:23;;;;;;;4.97;3.30;;;18.20;99.90;;;;;;5012306;28;20056;-77
2021/07/09 09:20:13;;;;;;;5.35;3.15;;;18.30;99.90;;;;;;5013764;28;20120;-79
2021/07/09 09:23:05;;;;;;;4.38;3.03;;;18.40;99.90;;;;;;5014534;28;20073;-79
2021/07/09 09:25:33;;;;;;;6.35;2.75;;;18.60;99.90;;;;;;5014041;28;20065;-78
2021/07/09 09:28:05;;;;;;;5.38;3.08;;;18.70;99.90;;;;;;5013342;28;20092;-79
2021/07/09 09:30:33;;;;;;;5.65;3.15;;;18.80;99.90;;;;;;5014025;28;20137;-80
2021/07/09 09:33:04;;;;;;;5.03;3.13;;;18.90;99.90;;;;;;5013316;28;20137;-79
2021/07/09 09:35:37;;;;;;;4.78;3.10;;;18.90;99.90;;;;;;5013025;28;20133;-80
2021/07/09 09:38:07;;;;;;;4.50;2.92;;;19.00;99.90;;;;;;5013486;28;20081;-80
2021/07/09 09:40:37;;;;;;;5.43;3.47;;;19.00;99.90;;;;;;5006552;28;20046;-79
2021/07/09 09:43:08;;;;;;;6.07;2.97;;;19.10;99.90;;;;;;5013633;28;20132;-81
2021/07/09 09:45:37;;;;;;;4.72;2.90;;;19.20;99.90;;;;;;5013696;28;20133;-79
2021/07/09 09:48:06;;;;;;;4.95;3.10;;;19.30;99.90;;;;;;5013455;28;20042;-78
2021/07/09 09:50:43;;;;;;;4.55;2.80;;;19.40;99.90;;;;;;5013391;28;20042;-81
2021/07/09 09:53:12;;;;;;;4.32;2.50;;;19.50;99.90;;;;;;5013756;28;20073;-80
2021/07/09 09:55:40;;;;;;;5.35;2.63;;;19.60;99.90;;;;;;5013942;28;20042;-78
2021/07/09 09:58:18;;;;;;;4.80;2.75;;;19.70;99.90;;;;;;5013701;28;20404;-78
2021/07/09 10:00:47;;;;;;;6.32;3.05;;;19.70;99.90;;;;;;5013441;28;20090;-78
2021/07/09 10:03:14;;;;;;;5.90;2.70;;;19.80;99.90;;;;;;5013317;28;20398;-79
2021/07/09 10:05:43;;;;;;;5.10;2.90;;;19.70;99.60;;;;;;5013466;28;20480;-79
2021/07/09 10:08:15;;;;;;;5.53;2.72;;;19.70;99.70;;;;;;5013724;28;20046;-79
2021/07/09 10:10:44;;;;;;;4.40;2.75;;;19.60;99.90;;;;;;5013349;28;20053;-79
2021/07/09 10:13:16;;;;;;;4.13;2.90;;;19.50;99.30;;;;;;5013155;28;20507;-79
2021/07/09 10:15:45;;;;;;;4.47;2.20;;;19.50;99.20;;;;;;5013193;28;20579;-79
2021/07/09 10:18:14;;;;;;;4.28;2.30;;;19.50;99.50;;;;;;5013433;28;20137;-79
2021/07/09 10:20:42;;;;;;;4.18;2.58;;;19.60;99.90;;;;;;5013213;28;20566;-78
2021/07/09 10:23:15;;;;;;;6.43;2.92;;;19.70;99.90;;;;;;5013211;28;20052;-80
2021/07/09 10:25:45;;;;;;;6.32;2.47;;;19.80;99.40;;;;;;5013526;28;20081;-80
2021/07/09 10:28:13;;;;;;;4.57;2.70;;;19.80;99.00;;;;;;5012631;28;20384;-79
2021/07/09 10:30:42;;;;;;;4.38;2.92;;;19.80;98.20;;;;;;5012919;28;20137;-79
2021/07/09 10:33:29;;;;;;;4.68;2.80;;;19.90;98.10;;;;;;5012920;28;20061;-79
2021/07/09 10:35:57;;;;;;;4.85;2.40;;;19.80;98.20;;;;;;5012868;28;20451;-80
2021/07/09 10:38:36;;;;;;;5.57;2.80;;;19.90;98.20;;;;;;5012067;28;20125;-78
2021/07/09 10:41:13;;;;;;;4.47;3.00;;;19.90;98.00;;;;;;5008088;28;20551;-79
2021/07/09 10:43:40;;;;;;;5.00;2.80;;;20.00;98.10;;;;;;5010984;28;20050;-81
2021/07/09 10:46:08;;;;;;;4.35;2.85;;;20.10;97.70;;;;;;5012664;28;20073;-77
2021/07/09 10:48:38;;;;;;;6.93;2.90;;;20.20;97.60;;;;;;5013535;28;20053;-79
2021/07/09 10:51:05;;;;;;;5.15;2.88;;;20.20;96.90;;;;;;5014903;28;20048;-79
2021/07/09 10:53:34;;;;;;;4.80;2.70;;;20.30;97.10;;;;;;5017509;28;20050;-77
2021/07/09 10:56:04;;;;;;;6.10;2.90;;;20.40;95.90;;;;;;4994965;28;20046;-79
2021/07/09 10:58:42;;;;;;;5.68;2.88;;;20.50;94.80;;;;;;4993680;28;20043;-76
2021/07/09 11:01:18;;;;;;;4.82;2.60;;;20.50;95.10;;;;;;4993818;28;20420;-80
2021/07/09 11:03:48;;;;;;;4.50;2.63;;;20.60;93.90;;;;;;4994375;28;20403;-79
2021/07/09 11:06:19;;;;;;;5.07;2.63;;;20.60;93.40;;;;;;4993392;28;20050;-79
2021/07/09 11:09:01;;;;;;;4.32;3.28;;;20.70;92.70;;;;;;5005925;28;20492;-77
2021/07/09 11:11:42;;;;;;;4.80;2.67;;;20.70;92.90;;;;;;5012965;28;20538;-80
2021/07/09 11:14:13;;;;;;;5.18;3.30;;;20.70;93.60;;;;;;5011261;28;20053;-77
2021/07/09 11:16:43;;;;;;;4.90;3.33;;;20.60;94.60;;;;;;5012658;28;20145;-80
2021/07/09 11:19:16;;;;;;;4.80;3.47;;;20.60;95.00;;;;;;5012733;28;20079;-80
2021/07/09 11:22:08;;;;;;;5.03;3.78;;;20.50;95.30;;;;;;5005770;28;20130;-80
2021/07/09 11:24:43;;;;;;;6.75;3.60;;;20.40;95.70;;;;;;4993288;28;20125;-77
2021/07/09 11:27:11;;;;;;;5.53;3.50;;;20.30;96.30;;;;;;4993737;28;20579;-78
2021/07/09 11:29:40;;;;;;;4.63;3.45;;;20.20;97.00;;;;;;4995010;28;20125;-76
2021/07/09 11:32:12;;;;;;;4.97;3.47;;;20.20;97.50;;;;;;5003766;28;20097;-80
2021/07/09 11:34:42;;;;;;;6.07;3.47;;;20.20;97.60;;;;;;4993973;28;20138;-80
2021/07/09 11:37:12;;;;;;;4.45;3.20;;;20.20;97.80;;;;;;5002902;28;20578;-77
2021/07/09 11:39:43;;;;;;;4.90;3.15;;;20.20;98.00;;;;;;4997327;28;20141;-77
2021/07/09 11:42:12;;;;;;;5.18;2.95;;;20.30;97.70;;;;;;5001400;28;20114;-79
2021/07/09 11:44:43;;;;;;;5.60;3.40;;;20.40;97.50;;;;;;5002423;28;20133;-79
2021/07/09 11:47:13;;;;;;;6.50;3.20;;;20.40;97.10;;;;;;5013857;28;20132;-80
2021/07/09 11:49:42;;;;;;;4.80;2.88;;;20.50;97.20;;;;;;5013936;28;20137;-79
2021/07/09 11:52:12;;;;;;;4.60;3.10;;;20.50;97.50;;;;;;5012007;28;20054;-79
2021/07/09 11:54:45;;;;;;;4.38;2.95;;;20.60;97.70;;;;;;5012694;28;20081;-80
2021/07/09 11:57:15;;;;;;;4.28;2.90;;;20.80;97.80;;;;;;5013975;28;20042;-79
2021/07/09 11:59:45;;;;;;;5.43;3.35;;;20.90;97.50;;;;;;5016268;28;20046;-79
2021/07/09 12:02:16;;;;;;;4.18;3.03;;;21.10;97.00;;;;;;5005268;28;20101;-81
2021/07/09 12:04:49;;;;;;;3.97;3.00;;;21.20;97.10;;;;;;4997191;28;20054;-79
2021/07/09 12:07:32;;;;;;;5.70;3.15;;;21.40;96.70;;;;;;4997082;28;20050;-78
2021/07/09 12:10:07;;;;;;;4.67;3.27;;;21.60;95.90;;;;;;4996720;28;20141;-78
2021/07/09 12:12:39;;;;;;;5.70;2.97;;;21.70;94.60;;;;;;4997208;28;20164;-81
2021/07/09 12:15:18;;;;;;;4.93;3.35;;;21.80;94.30;;;;;;5005006;28;20427;-79
2021/07/09 12:17:48;;;;;;;4.40;3.05;;;21.90;94.20;;;;;;5015866;28;20073;-81
2021/07/09 12:20:18;;;;;;;4.60;3.42;;;21.90;94.10;;;;;;5015972;28;20061;-79
2021/07/09 12:22:51;;;;;;;4.85;3.58;;;21.90;93.10;;;;;;5014322;28;20140;-80
2021/07/09 12:25:23;;;;;;;5.10;3.40;;;22.00;92.90;;;;;;5015678;28;20050;-80
2021/07/09 12:27:51;;;;;;;4.22;3.13;;;21.90;93.00;;;;;;5014419;28;20051;-78
2021/07/09 12:30:22;;;;;;;5.82;3.67;;;22.00;92.80;;;;;;5012265;28;20116;-79
2021/07/09 12:32:53;;;;;;;4.97;3.38;;;22.10;92.70;;;;;;5013555;28;20125;-79
2021/07/09 12:35:22;;;;;;;4.78;3.53;;;22.30;92.20;;;;;;5014571;28;20559;-79
2021/07/09 12:38:02;;;;;;;5.20;3.47;;;22.50;91.40;;;;;;5010072;28;20140;-78
2021/07/09 12:40:35;;;;;;;5.68;3.70;;;22.70;90.80;;;;;;5013083;28;20130;-80
2021/07/09 12:43:24;;;;;;;5.20;3.17;;;22.80;90.10;;;;;;5014340;28;20463;-77
2021/07/09 12:45:58;;;;;;;4.10;2.88;;;23.00;90.60;;;;;;5009807;28;20133;-81
2021/07/09 12:48:36;;;;;;;4.30;2.92;;;23.10;90.20;;;;;;5014563;28;20038;-81
2021/07/09 12:51:21;;;;;;;5.63;3.58;;;23.10;89.00;;;;;;5014037;28;20141;-80
2021/07/09 12:53:57;;;;;;;5.13;3.30;;;23.10;88.70;;;;;;5009159;28;20100;-81
2021/07/09 12:56:27;;;;;;;6.28;4.00;;;23.00;86.80;;;;;;5015278;28;20084;-81
2021/07/09 12:59:07;;;;;;;4.38;3.17;;;22.90;86.50;;;;;;5016086;28;20583;-81